KGEZ

Shelbyville Municipal Airport

Shelbyville, Indiana, USA
METAR KGEZ 171453Z AUTO 29006KT 10SM CLR 02/M02 A3016 RMK AO2 SLP220 T00221017 53010
Observed Flight Rules
Dec-17 @ 14:53 UTC (13 minutes ago) Visual Flight Rules
Wind Visibility Clouds
290° at 6 knots 10 miles
  • Clear skies
Temperatures Readings
Current 2°C / 36°F
Dewpoint -2°C / 28°F
Humidity 75%
Altimeter 30.16" Hg
Pressure 1022 hPa
Elevation 245
METAR KGEZ 171453Z AUTO 29006KT 10SM CLR 02/M02 A3016 RMK AO2 SLP220 T00221017 53010
Observed Flight Rules
Dec-17 @ 14:53 UTC
(13 minutes ago)
VFR
Wind Visibility
290° at 6 knots 10 miles
Clouds
  • Clear skies
Temperature Dewpoint
2°C / 36°F -2°C / 28°F
Humidity Altimeter Pressure
75% 30.16" Hg 1022 hPa